sensor_id;sensor_type;location;lat;lon;timestamp;pressure;altitude;pressure_sealevel;temperature;humidity
42105;BME280;70664;51.472;5.712;2023-11-19T00:02:22;100765.44;;;16.24;73.22
42105;BME280;70664;51.472;5.712;2023-11-19T00:04:48;100761.94;;;16.25;73.40
42105;BME280;70664;51.472;5.712;2023-11-19T00:07:13;100766.25;;;16.24;73.19
42105;BME280;70664;51.472;5.712;2023-11-19T00:09:40;100764.59;;;16.22;73.25
42105;BME280;70664;51.472;5.712;2023-11-19T00:12:06;100754.25;;;16.20;73.30
42105;BME280;70664;51.472;5.712;2023-11-19T00:14:33;100765.50;;;16.19;73.44
42105;BME280;70664;51.472;5.712;2023-11-19T00:17:00;100766.38;;;16.20;73.15
42105;BME280;70664;51.472;5.712;2023-11-19T00:19:26;100756.00;;;16.20;73.46
42105;BME280;70664;51.472;5.712;2023-11-19T00:21:52;100756.91;;;16.17;73.11
42105;BME280;70664;51.472;5.712;2023-11-19T00:24:18;100746.56;;;16.15;73.20
42105;BME280;70664;51.472;5.712;2023-11-19T00:26:45;100740.56;;;16.15;73.06
42105;BME280;70664;51.472;5.712;2023-11-19T00:29:12;100732.78;;;16.13;73.34
42105;BME280;70664;51.472;5.712;2023-11-19T00:31:39;100727.56;;;16.15;73.24
42105;BME280;70664;51.472;5.712;2023-11-19T00:34:05;100728.41;;;16.15;73.10
42105;BME280;70664;51.472;5.712;2023-11-19T00:36:31;100712.84;;;16.15;73.02
42105;BME280;70664;51.472;5.712;2023-11-19T00:38:57;100702.53;;;16.14;73.13
42105;BME280;70664;51.472;5.712;2023-11-19T00:41:23;100699.94;;;16.12;73.29
42105;BME280;70664;51.472;5.712;2023-11-19T00:43:49;100700.00;;;16.11;73.19
42105;BME280;70664;51.472;5.712;2023-11-19T00:46:15;100693.94;;;16.10;73.37
42105;BME280;70664;51.472;5.712;2023-11-19T00:48:40;100702.59;;;16.11;73.14
42105;BME280;70664;51.472;5.712;2023-11-19T00:51:07;100709.56;;;16.07;73.40
42105;BME280;70664;51.472;5.712;2023-11-19T00:53:33;100709.56;;;16.07;73.09
42105;BME280;70664;51.472;5.712;2023-11-19T00:56:03;100717.34;;;16.09;73.49
42105;BME280;70664;51.472;5.712;2023-11-19T00:58:29;100706.06;;;16.10;73.40
42105;BME280;70664;51.472;5.712;2023-11-19T01:00:55;100693.94;;;16.12;72.95
42105;BME280;70664;51.472;5.712;2023-11-19T01:03:22;100692.34;;;16.05;73.46
42105;BME280;70664;51.472;5.712;2023-11-19T01:05:48;100702.66;;;16.08;73.14
42105;BME280;70664;51.472;5.712;2023-11-19T01:08:14;100706.09;;;16.08;73.26
42105;BME280;70664;51.472;5.712;2023-11-19T01:10:41;100713.88;;;16.08;72.92
42105;BME280;70664;51.472;5.712;2023-11-19T01:13:07;100709.56;;;16.07;72.93
42105;BME280;70664;51.472;5.712;2023-11-19T01:15:33;100705.31;;;16.05;73.16
42105;BME280;70664;51.472;5.712;2023-11-19T01:17:58;100711.31;;;16.07;73.27
42105;BME280;70664;51.472;5.712;2023-11-19T01:20:24;100710.50;;;16.05;72.99
42105;BME280;70664;51.472;5.712;2023-11-19T01:22:52;100725.22;;;16.02;73.29
42105;BME280;70664;51.472;5.712;2023-11-19T01:25:17;100718.22;;;16.06;72.92
42105;BME280;70664;51.472;5.712;2023-11-19T01:27:43;100707.09;;;16.02;72.94
42105;BME280;70664;51.472;5.712;2023-11-19T01:30:10;100697.56;;;16.03;72.93
42105;BME280;70664;51.472;5.712;2023-11-19T01:32:39;100705.38;;;16.01;72.94
42105;BME280;70664;51.472;5.712;2023-11-19T01:35:06;100685.56;;;15.99;73.23
42105;BME280;70664;51.472;5.712;2023-11-19T01:37:32;100667.34;;;16.02;72.88
42105;BME280;70664;51.472;5.712;2023-11-19T01:39:57;100675.13;;;16.00;73.01
42105;BME280;70664;51.472;5.712;2023-11-19T01:42:23;100676.00;;;16.01;72.96
42105;BME280;70664;51.472;5.712;2023-11-19T01:44:59;100662.22;;;15.99;73.24
42105;BME280;70664;51.472;5.712;2023-11-19T01:47:27;100682.91;;;16.00;72.94
42105;BME280;70664;51.472;5.712;2023-11-19T01:49:54;100690.75;;;15.99;72.72
42105;BME280;70664;51.472;5.712;2023-11-19T01:52:22;100682.97;;;15.97;73.13
42105;BME280;70664;51.472;5.712;2023-11-19T01:54:48;100691.63;;;15.98;72.89
42105;BME280;70664;51.472;5.712;2023-11-19T01:57:14;100695.06;;;15.98;72.83
42105;BME280;70664;51.472;5.712;2023-11-19T01:59:40;100688.16;;;15.99;72.99
42105;BME280;70664;51.472;5.712;2023-11-19T02:02:07;100694.25;;;15.96;72.86
42105;BME280;70664;51.472;5.712;2023-11-19T02:04:34;100696.00;;;15.96;73.25
42105;BME280;70664;51.472;5.712;2023-11-19T02:07:00;100688.22;;;15.96;73.05
42105;BME280;70664;51.472;5.712;2023-11-19T02:09:26;100693.41;;;15.96;73.18
42105;BME280;70664;51.472;5.712;2023-11-19T02:11:53;100691.66;;;15.96;72.74
42105;BME280;70664;51.472;5.712;2023-11-19T02:14:25;100683.91;;;15.95;72.97
42105;BME280;70664;51.472;5.712;2023-11-19T02:16:52;100690.81;;;15.94;72.99
42105;BME280;70664;51.472;5.712;2023-11-19T02:19:21;100690.88;;;15.93;73.12
42105;BME280;70664;51.472;5.712;2023-11-19T02:21:47;100686.50;;;15.95;73.14
42105;BME280;70664;51.472;5.712;2023-11-19T02:24:14;100683.97;;;15.92;72.68
42105;BME280;70664;51.472;5.712;2023-11-19T02:29:12;100673.59;;;15.92;72.56
42105;BME280;70664;51.472;5.712;2023-11-19T02:31:38;100669.31;;;15.91;73.15
42105;BME280;70664;51.472;5.712;2023-11-19T02:34:04;100671.00;;;15.92;72.82
42105;BME280;70664;51.472;5.712;2023-11-19T02:36:31;100664.06;;;15.92;72.91
42105;BME280;70664;51.472;5.712;2023-11-19T02:38:58;100651.97;;;15.93;72.87
42105;BME280;70664;51.472;5.712;2023-11-19T02:41:24;100653.81;;;15.89;72.70
42105;BME280;70664;51.472;5.712;2023-11-19T02:43:49;100665.84;;;15.92;72.99
42105;BME280;70664;51.472;5.712;2023-11-19T02:46:15;100658.94;;;15.91;72.72
42105;BME280;70664;51.472;5.712;2023-11-19T02:48:43;100662.41;;;15.90;73.02
42105;BME280;70664;51.472;5.712;2023-11-19T02:51:10;100652.09;;;15.88;72.81
42105;BME280;70664;51.472;5.712;2023-11-19T02:53:36;100641.69;;;15.90;72.86
42105;BME280;70664;51.472;5.712;2023-11-19T02:56:06;100659.03;;;15.86;73.09
42105;BME280;70664;51.472;5.712;2023-11-19T02:58:37;100667.66;;;15.86;73.14
42105;BME280;70664;51.472;5.712;2023-11-19T03:01:04;100670.25;;;15.88;72.99
42105;BME280;70664;51.472;5.712;2023-11-19T03:03:49;100672.00;;;15.86;73.04
42105;BME280;70664;51.472;5.712;2023-11-19T03:06:20;100671.97;;;15.87;73.11
42105;BME280;70664;51.472;5.712;2023-11-19T03:08:47;100660.75;;;15.85;73.06
42105;BME280;70664;51.472;5.712;2023-11-19T03:11:14;100670.25;;;15.86;72.70
42105;BME280;70664;51.472;5.712;2023-11-19T03:13:40;100659.00;;;15.87;72.82
42105;BME280;70664;51.472;5.712;2023-11-19T03:16:06;100655.56;;;15.85;72.64
42105;BME280;70664;51.472;5.712;2023-11-19T03:18:32;100654.72;;;15.85;72.73
42105;BME280;70664;51.472;5.712;2023-11-19T03:20:58;100658.22;;;15.82;72.61
42105;BME280;70664;51.472;5.712;2023-11-19T03:23:24;100664.22;;;15.86;72.83
42105;BME280;70664;51.472;5.712;2023-11-19T03:25:54;100666.81;;;15.84;72.66
42105;BME280;70664;51.472;5.712;2023-11-19T03:28:19;100671.16;;;15.82;72.70
42105;BME280;70664;51.472;5.712;2023-11-19T03:30:45;100679.81;;;15.83;73.02
42105;BME280;70664;51.472;5.712;2023-11-19T03:33:11;100678.94;;;15.82;72.63
42105;BME280;70664;51.472;5.712;2023-11-19T03:35:37;100678.09;;;15.82;72.97
42105;BME280;70664;51.472;5.712;2023-11-19T03:38:03;100685.03;;;15.81;72.80
42105;BME280;70664;51.472;5.712;2023-11-19T03:40:29;100673.81;;;15.81;73.05
42105;BME280;70664;51.472;5.712;2023-11-19T03:42:58;100679.84;;;15.81;72.80
42105;BME280;70664;51.472;5.712;2023-11-19T03:45:24;100670.34;;;15.82;72.94
42105;BME280;70664;51.472;5.712;2023-11-19T03:47:51;100666.03;;;15.81;72.67
42105;BME280;70664;51.472;5.712;2023-11-19T03:50:17;100669.47;;;15.81;72.90
42105;BME280;70664;51.472;5.712;2023-11-19T03:52:46;100670.28;;;15.83;72.50
42105;BME280;70664;51.472;5.712;2023-11-19T03:55:12;100671.16;;;15.84;72.75
42105;BME280;70664;51.472;5.712;2023-11-19T03:57:38;100672.13;;;15.78;72.72
42105;BME280;70664;51.472;5.712;2023-11-19T04:00:05;100665.22;;;15.79;72.92
42105;BME280;70664;51.472;5.712;2023-11-19T04:02:37;100670.47;;;15.76;72.87
42105;BME280;70664;51.472;5.712;2023-11-19T04:05:03;100679.91;;;15.78;72.51
42105;BME280;70664;51.472;5.712;2023-11-19T04:07:30;100677.34;;;15.77;72.73
42105;BME280;70664;51.472;5.712;2023-11-19T04:09:57;100685.06;;;15.78;72.54
42105;BME280;70664;51.472;5.712;2023-11-19T04:12:23;100673.88;;;15.78;72.99
42105;BME280;70664;51.472;5.712;2023-11-19T04:14:49;100680.78;;;15.77;72.54
42105;BME280;70664;51.472;5.712;2023-11-19T04:17:14;100669.63;;;15.75;72.99
42105;BME280;70664;51.472;5.712;2023-11-19T04:19:40;100665.28;;;15.76;72.49
42105;BME280;70664;51.472;5.712;2023-11-19T04:22:07;100675.59;;;15.77;72.55
42105;BME280;70664;51.472;5.712;2023-11-19T04:24:36;100684.25;;;15.76;72.53
42105;BME280;70664;51.472;5.712;2023-11-19T04:27:02;100679.13;;;15.75;72.68
42105;BME280;70664;51.472;5.712;2023-11-19T04:29:30;100681.72;;;15.75;72.64
42105;BME280;70664;51.472;5.712;2023-11-19T04:31:56;100679.06;;;15.78;72.76
42105;BME280;70664;51.472;5.712;2023-11-19T04:34:22;100684.25;;;15.76;72.78
42105;BME280;70664;51.472;5.712;2023-11-19T04:36:48;100686.06;;;15.74;72.87
42105;BME280;70664;51.472;5.712;2023-11-19T04:39:14;100702.44;;;15.75;72.87
42105;BME280;70664;51.472;5.712;2023-11-19T04:41:51;100694.59;;;15.78;72.40
42105;BME280;70664;51.472;5.712;2023-11-19T04:44:19;100689.53;;;15.73;72.59
42105;BME280;70664;51.472;5.712;2023-11-19T04:46:45;100683.47;;;15.72;72.52
42105;BME280;70664;51.472;5.712;2023-11-19T04:49:12;100676.56;;;15.73;72.66
42105;BME280;70664;51.472;5.712;2023-11-19T04:51:40;100676.63;;;15.70;72.59
42105;BME280;70664;51.472;5.712;2023-11-19T04:54:07;100679.22;;;15.70;72.58
42105;BME280;70664;51.472;5.712;2023-11-19T04:56:35;100688.72;;;15.71;72.43
42105;BME280;70664;51.472;5.712;2023-11-19T04:59:02;100686.94;;;15.71;72.76
42105;BME280;70664;51.472;5.712;2023-11-19T05:01:28;100691.31;;;15.69;72.56
42105;BME280;70664;51.472;5.712;2023-11-19T05:03:54;100693.91;;;15.69;72.46
42105;BME280;70664;51.472;5.712;2023-11-19T05:06:20;100693.88;;;15.71;72.49
42105;BME280;70664;51.472;5.712;2023-11-19T05:08:46;100698.19;;;15.70;72.57
42105;BME280;70664;51.472;5.712;2023-11-19T05:11:11;100695.66;;;15.69;72.72
42105;BME280;70664;51.472;5.712;2023-11-19T05:13:39;100705.09;;;15.71;72.71
42105;BME280;70664;51.472;5.712;2023-11-19T05:16:05;100705.19;;;15.67;72.77
42105;BME280;70664;51.472;5.712;2023-11-19T05:18:31;100703.44;;;15.67;72.37
42105;BME280;70664;51.472;5.712;2023-11-19T05:20:57;100708.63;;;15.69;72.67
42105;BME280;70664;51.472;5.712;2023-11-19T05:23:23;100708.56;;;15.70;72.79
42105;BME280;70664;51.472;5.712;2023-11-19T05:25:48;100706.91;;;15.68;72.61
42105;BME280;70664;51.472;5.712;2023-11-19T05:28:14;100704.31;;;15.68;72.77
42105;BME280;70664;51.472;5.712;2023-11-19T05:30:40;100713.75;;;15.70;72.61
42105;BME280;70664;51.472;5.712;2023-11-19T05:33:06;100701.72;;;15.68;72.52
42105;BME280;70664;51.472;5.712;2023-11-19T05:35:34;100702.59;;;15.67;72.47
42105;BME280;70664;51.472;5.712;2023-11-19T05:38:00;100713.88;;;15.64;72.46
42105;BME280;70664;51.472;5.712;2023-11-19T05:40:28;100716.47;;;15.64;72.81
42105;BME280;70664;51.472;5.712;2023-11-19T05:42:53;100722.53;;;15.63;72.81
42105;BME280;70664;51.472;5.712;2023-11-19T05:45:19;100722.50;;;15.65;72.42
42105;BME280;70664;51.472;5.712;2023-11-19T05:47:45;100716.44;;;15.66;72.46
42105;BME280;70664;51.472;5.712;2023-11-19T05:50:11;100713.03;;;15.64;72.77
42105;BME280;70664;51.472;5.712;2023-11-19T05:52:37;100694.06;;;15.62;72.66
42105;BME280;70664;51.472;5.712;2023-11-19T05:55:03;100703.50;;;15.64;72.72
42105;BME280;70664;51.472;5.712;2023-11-19T05:57:36;100708.78;;;15.61;72.39
42105;BME280;70664;51.472;5.712;2023-11-19T06:00:03;100705.34;;;15.59;72.95
42105;BME280;70664;51.472;5.712;2023-11-19T06:02:33;100716.50;;;15.63;72.38
42105;BME280;70664;51.472;5.712;2023-11-19T06:04:59;100721.66;;;15.64;72.42
42105;BME280;70664;51.472;5.712;2023-11-19T06:07:24;100716.47;;;15.64;72.58
42105;BME280;70664;51.472;5.712;2023-11-19T06:09:50;100709.63;;;15.62;72.59
42105;BME280;70664;51.472;5.712;2023-11-19T06:12:16;100710.53;;;15.59;72.72
42105;BME280;70664;51.472;5.712;2023-11-19T06:14:42;100707.13;;;15.57;72.55
42105;BME280;70664;51.472;5.712;2023-11-19T06:17:08;100713.13;;;15.59;72.57
42105;BME280;70664;51.472;5.712;2023-11-19T06:19:34;100711.44;;;15.58;72.64
42105;BME280;70664;51.472;5.712;2023-11-19T06:22:00;100716.59;;;15.58;72.56
42105;BME280;70664;51.472;5.712;2023-11-19T06:24:25;100707.91;;;15.61;72.36
42105;BME280;70664;51.472;5.712;2023-11-19T06:26:51;100714.03;;;15.58;72.34
42105;BME280;70664;51.472;5.712;2023-11-19T06:29:17;100715.72;;;15.59;72.38
42105;BME280;70664;51.472;5.712;2023-11-19T06:31:45;100725.22;;;15.58;72.49
42105;BME280;70664;51.472;5.712;2023-11-19T06:34:14;100724.38;;;15.58;72.55
42105;BME280;70664;51.472;5.712;2023-11-19T06:36:40;100718.38;;;15.56;72.46
42105;BME280;70664;51.472;5.712;2023-11-19T06:39:06;100724.41;;;15.56;72.71
42105;BME280;70664;51.472;5.712;2023-11-19T06:41:32;100731.31;;;15.56;72.76
42105;BME280;70664;51.472;5.712;2023-11-19T06:43:57;100730.44;;;15.57;72.61
42105;BME280;70664;51.472;5.712;2023-11-19T06:46:23;100725.28;;;15.55;72.67
42105;BME280;70664;51.472;5.712;2023-11-19T06:48:49;100726.97;;;15.56;72.65
42105;BME280;70664;51.472;5.712;2023-11-19T06:51:15;100722.69;;;15.55;72.87
42105;BME280;70664;51.472;5.712;2023-11-19T06:53:42;100721.03;;;15.53;72.09
42105;BME280;70664;51.472;5.712;2023-11-19T06:56:23;100717.53;;;15.54;72.89
42105;BME280;70664;51.472;5.712;2023-11-19T06:58:52;100714.09;;;15.53;72.25
42105;BME280;70664;51.472;5.712;2023-11-19T07:01:19;100712.38;;;15.54;72.57
42105;BME280;70664;51.472;5.712;2023-11-19T07:03:48;100724.50;;;15.52;72.67
42105;BME280;70664;51.472;5.712;2023-11-19T07:06:14;100714.97;;;15.52;72.53
42105;BME280;70664;51.472;5.712;2023-11-19T07:08:43;100720.16;;;15.52;72.29
42105;BME280;70664;51.472;5.712;2023-11-19T07:11:13;100733.09;;;15.54;72.55
42105;BME280;70664;51.472;5.712;2023-11-19T07:13:42;100743.50;;;15.51;72.72
42105;BME280;70664;51.472;5.712;2023-11-19T07:16:08;100750.41;;;15.52;72.27
42105;BME280;70664;51.472;5.712;2023-11-19T07:18:37;100749.53;;;15.53;72.65
42105;BME280;70664;51.472;5.712;2023-11-19T07:21:04;100753.00;;;15.50;72.71
42105;BME280;70664;51.472;5.712;2023-11-19T07:23:30;100753.84;;;15.52;72.15
42105;BME280;70664;51.472;5.712;2023-11-19T07:25:56;100756.41;;;15.54;72.46
42105;BME280;70664;51.472;5.712;2023-11-19T07:28:22;100771.06;;;15.55;72.55
42105;BME280;70664;51.472;5.712;2023-11-19T07:30:48;100768.50;;;15.53;72.54
42105;BME280;70664;51.472;5.712;2023-11-19T07:33:15;100774.56;;;15.52;72.19
42105;BME280;70664;51.472;5.712;2023-11-19T07:35:42;100776.25;;;15.55;72.07
42105;BME280;70664;51.472;5.712;2023-11-19T07:38:09;100777.16;;;15.52;72.15
42105;BME280;70664;51.472;5.712;2023-11-19T07:40:35;100780.63;;;15.51;72.16
42105;BME280;70664;51.472;5.712;2023-11-19T07:43:01;100781.50;;;15.50;72.42
42105;BME280;70664;51.472;5.712;2023-11-19T07:45:26;100785.81;;;15.51;72.60
42105;BME280;70664;51.472;5.712;2023-11-19T07:47:53;100791.00;;;15.51;72.16
42105;BME280;70664;51.472;5.712;2023-11-19T07:50:20;100788.44;;;15.50;72.56
42105;BME280;70664;51.472;5.712;2023-11-19T07:52:46;100781.50;;;15.50;72.40
42105;BME280;70664;51.472;5.712;2023-11-19T07:55:11;100778.06;;;15.50;72.62
42105;BME280;70664;51.472;5.712;2023-11-19T07:57:37;100774.63;;;15.49;72.40
42105;BME280;70664;51.472;5.712;2023-11-19T08:00:04;100774.59;;;15.51;72.13
42105;BME280;70664;51.472;5.712;2023-11-19T08:02:30;100775.44;;;15.51;72.13
42105;BME280;70664;51.472;5.712;2023-11-19T08:04:56;100779.81;;;15.49;72.26
42105;BME280;70664;51.472;5.712;2023-11-19T08:07:22;100795.38;;;15.48;72.08
42105;BME280;70664;51.472;5.712;2023-11-19T08:09:48;100787.56;;;15.49;72.10
42105;BME280;70664;51.472;5.712;2023-11-19T08:12:14;100797.94;;;15.51;72.19
42105;BME280;70664;51.472;5.712;2023-11-19T08:14:42;100784.97;;;15.51;72.12
42105;BME280;70664;51.472;5.712;2023-11-19T08:17:09;100794.50;;;15.49;72.07
42105;BME280;70664;51.472;5.712;2023-11-19T08:19:35;100797.94;;;15.51;72.31
42105;BME280;70664;51.472;5.712;2023-11-19T08:22:01;100803.13;;;15.49;72.10
42105;BME280;70664;51.472;5.712;2023-11-19T08:24:27;100803.09;;;15.51;72.16
42105;BME280;70664;51.472;5.712;2023-11-19T08:26:53;100809.13;;;15.51;71.98
42105;BME280;70664;51.472;5.712;2023-11-19T08:29:19;100803.94;;;15.51;72.17
42105;BME280;70664;51.472;5.712;2023-11-19T08:31:46;100797.06;;;15.50;72.27
42105;BME280;70664;51.472;5.712;2023-11-19T08:34:12;100795.38;;;15.48;72.25
42105;BME280;70664;51.472;5.712;2023-11-19T08:36:38;100796.22;;;15.50;72.20
42105;BME280;70664;51.472;5.712;2023-11-19T08:39:04;100805.72;;;15.49;72.17
42105;BME280;70664;51.472;5.712;2023-11-19T08:41:29;100801.41;;;15.50;72.39
42105;BME280;70664;51.472;5.712;2023-11-19T08:43:55;100797.06;;;15.50;72.83
42105;BME280;70664;51.472;5.712;2023-11-19T08:46:21;100793.63;;;15.50;72.58
42105;BME280;70664;51.472;5.712;2023-11-19T08:48:47;100806.53;;;15.51;72.38
42105;BME280;70664;51.472;5.712;2023-11-19T08:51:13;100798.81;;;15.48;72.56
42105;BME280;70664;51.472;5.712;2023-11-19T08:53:38;100799.66;;;15.50;72.45
42105;BME280;70664;51.472;5.712;2023-11-19T08:56:04;100784.09;;;15.50;72.24
42105;BME280;70664;51.472;5.712;2023-11-19T08:58:31;100786.69;;;15.50;72.18
42105;BME280;70664;51.472;5.712;2023-11-19T09:00:57;100792.69;;;15.52;72.28
42105;BME280;70664;51.472;5.712;2023-11-19T09:03:23;100792.66;;;15.55;72.67
42105;BME280;70664;51.472;5.712;2023-11-19T09:05:49;100782.34;;;15.52;72.51
42105;BME280;70664;51.472;5.712;2023-11-19T09:08:15;100790.16;;;15.51;72.53
42105;BME280;70664;51.472;5.712;2023-11-19T09:10:41;100788.44;;;15.50;72.63
42105;BME280;70664;51.472;5.712;2023-11-19T09:13:06;100796.16;;;15.53;72.54
42105;BME280;70664;51.472;5.712;2023-11-19T09:15:33;100793.63;;;15.48;72.45
42105;BME280;70664;51.472;5.712;2023-11-19T09:17:59;100785.81;;;15.51;72.71
42105;BME280;70664;51.472;5.712;2023-11-19T09:20:24;100800.53;;;15.49;72.78
42105;BME280;70664;51.472;5.712;2023-11-19T09:22:50;100816.06;;;15.51;72.48
42105;BME280;70664;51.472;5.712;2023-11-19T09:25:17;100797.97;;;15.48;72.42
42105;BME280;70664;51.472;5.712;2023-11-19T09:27:44;100791.00;;;15.51;72.60
42105;BME280;70664;51.472;5.712;2023-11-19T09:30:10;100780.63;;;15.51;72.53
42105;BME280;70664;51.472;5.712;2023-11-19T09:32:36;100800.47;;;15.54;72.79
42105;BME280;70664;51.472;5.712;2023-11-19T09:35:03;100784.97;;;15.51;72.40
42105;BME280;70664;51.472;5.712;2023-11-19T09:37:29;100790.97;;;15.53;72.60
42105;BME280;70664;51.472;5.712;2023-11-19T09:39:55;100778.88;;;15.53;72.83
42105;BME280;70664;51.472;5.712;2023-11-19T09:42:23;100790.94;;;15.56;73.17
42105;BME280;70664;51.472;5.712;2023-11-19T09:44:49;100785.75;;;15.56;73.39
42105;BME280;70664;51.472;5.712;2023-11-19T09:47:16;100787.47;;;15.57;73.20
42105;BME280;70664;51.472;5.712;2023-11-19T09:49:43;100784.81;;;15.58;72.61
42105;BME280;70664;51.472;5.712;2023-11-19T09:52:09;100790.03;;;15.57;72.76
42105;BME280;70664;51.472;5.712;2023-11-19T09:54:35;100781.41;;;15.58;72.89
42105;BME280;70664;51.472;5.712;2023-11-19T09:57:02;100781.41;;;15.56;72.87
42105;BME280;70664;51.472;5.712;2023-11-19T09:59:30;100789.19;;;15.56;73.21
42105;BME280;70664;51.472;5.712;2023-11-19T10:01:56;100793.53;;;15.56;73.25
42105;BME280;70664;51.472;5.712;2023-11-19T10:04:23;100795.19;;;15.58;73.06
42105;BME280;70664;51.472;5.712;2023-11-19T10:06:51;100788.28;;;15.57;73.04
42105;BME280;70664;51.472;5.712;2023-11-19T10:09:17;100800.38;;;15.58;72.79
42105;BME280;70664;51.472;5.712;2023-11-19T10:11:43;100804.69;;;15.60;73.28
42105;BME280;70664;51.472;5.712;2023-11-19T10:14:09;100790.88;;;15.59;73.24
42105;BME280;70664;51.472;5.712;2023-11-19T10:16:35;100791.72;;;15.61;73.29
42105;BME280;70664;51.472;5.712;2023-11-19T10:19:01;100795.19;;;15.58;73.05
42105;BME280;70664;51.472;5.712;2023-11-19T10:21:27;100788.28;;;15.57;73.40
42105;BME280;70664;51.472;5.712;2023-11-19T10:23:57;100789.16;;;15.58;73.23
42105;BME280;70664;51.472;5.712;2023-11-19T10:26:27;100796.06;;;15.57;72.97
42105;BME280;70664;51.472;5.712;2023-11-19T10:28:53;100783.00;;;15.62;73.32
42105;BME280;70664;51.472;5.712;2023-11-19T10:31:20;100794.31;;;15.60;73.04
42105;BME280;70664;51.472;5.712;2023-11-19T10:33:50;100795.97;;;15.62;73.23
42105;BME280;70664;51.472;5.712;2023-11-19T10:36:17;100790.78;;;15.62;73.39
42105;BME280;70664;51.472;5.712;2023-11-19T10:38:56;100800.31;;;15.62;73.34
42105;BME280;70664;51.472;5.712;2023-11-19T10:41:32;100800.31;;;15.62;73.03
42105;BME280;70664;51.472;5.712;2023-11-19T10:43:59;100795.19;;;15.60;73.35
42105;BME280;70664;51.472;5.712;2023-11-19T10:46:38;100793.44;;;15.61;72.97
42105;BME280;70664;51.472;5.712;2023-11-19T10:49:05;100784.81;;;15.60;73.08
42105;BME280;70664;51.472;5.712;2023-11-19T10:51:32;100784.88;;;15.57;73.65
42105;BME280;70664;51.472;5.712;2023-11-19T10:54:07;100783.88;;;15.63;73.70
42105;BME280;70664;51.472;5.712;2023-11-19T10:56:34;100775.28;;;15.61;73.75
42105;BME280;70664;51.472;5.712;2023-11-19T10:59:01;100772.69;;;15.61;73.72
42105;BME280;70664;51.472;5.712;2023-11-19T11:01:43;100768.38;;;15.60;73.97
42105;BME280;70664;51.472;5.712;2023-11-19T11:04:24;100767.56;;;15.59;73.79
42105;BME280;70664;51.472;5.712;2023-11-19T11:06:54;100788.28;;;15.57;74.18
42105;BME280;70664;51.472;5.712;2023-11-19T11:09:26;100781.34;;;15.60;74.13
42105;BME280;70664;51.472;5.712;2023-11-19T11:11:52;100778.75;;;15.61;73.96
42105;BME280;70664;51.472;5.712;2023-11-19T11:14:21;100760.56;;;15.63;74.18
42105;BME280;70664;51.472;5.712;2023-11-19T11:16:48;100786.56;;;15.58;74.19
42105;BME280;70664;51.472;5.712;2023-11-19T11:19:18;100780.53;;;15.57;73.95
42105;BME280;70664;51.472;5.712;2023-11-19T11:21:52;100768.38;;;15.60;73.99
42105;BME280;70664;51.472;5.712;2023-11-19T11:24:45;100762.38;;;15.57;74.17
42105;BME280;70664;51.472;5.712;2023-11-19T11:28:34;100748.53;;;15.58;74.17
42105;BME280;70664;51.472;5.712;2023-11-19T11:31:36;100752.06;;;15.56;73.92
42105;BME280;70664;51.472;5.712;2023-11-19T11:37:37;100746.78;;;15.61;74.06
42105;BME280;70664;51.472;5.712;2023-11-19T11:40:05;100753.78;;;15.57;73.81
42105;BME280;70664;51.472;5.712;2023-11-19T11:42:38;100757.19;;;15.57;73.94
42105;BME280;70664;51.472;5.712;2023-11-19T11:45:13;100754.66;;;15.56;73.75
42105;BME280;70664;51.472;5.712;2023-11-19T11:50:18;100750.28;;;15.58;73.93
42105;BME280;70664;51.472;5.712;2023-11-19T11:57:50;100740.00;;;15.53;74.09
42105;BME280;70664;51.472;5.712;2023-11-19T12:00:43;100750.25;;;15.60;73.62
42105;BME280;70664;51.472;5.712;2023-11-19T12:03:10;100741.63;;;15.59;73.53
42105;BME280;70664;51.472;5.712;2023-11-19T12:05:45;100745.06;;;15.60;73.65
42105;BME280;70664;51.472;5.712;2023-11-19T12:08:12;100740.75;;;15.60;73.75
42105;BME280;70664;51.472;5.712;2023-11-19T12:13:14;100736.47;;;15.59;74.36
42105;BME280;70664;51.472;5.712;2023-11-19T12:18:29;100725.16;;;15.62;74.04
42105;BME280;70664;51.472;5.712;2023-11-19T12:20:56;100733.78;;;15.62;73.92
42105;BME280;70664;51.472;5.712;2023-11-19T12:23:23;100732.06;;;15.63;73.97
42105;BME280;70664;51.472;5.712;2023-11-19T12:25:49;100719.97;;;15.62;73.85
42105;BME280;70664;51.472;5.712;2023-11-19T12:28:16;100716.47;;;15.64;74.17
42105;BME280;70664;51.472;5.712;2023-11-19T12:30:43;100730.34;;;15.62;73.99
42105;BME280;70664;51.472;5.712;2023-11-19T12:33:10;100734.66;;;15.63;74.24
42105;BME280;70664;51.472;5.712;2023-11-19T12:35:41;100727.69;;;15.65;73.94
42105;BME280;70664;51.472;5.712;2023-11-19T12:38:07;100720.81;;;15.62;74.18
42105;BME280;70664;51.472;5.712;2023-11-19T12:40:33;100730.28;;;15.65;74.09
42105;BME280;70664;51.472;5.712;2023-11-19T12:42:59;100728.59;;;15.64;74.22
42105;BME280;70664;51.472;5.712;2023-11-19T12:45:36;100732.84;;;15.66;74.13
42105;BME280;70664;51.472;5.712;2023-11-19T12:48:06;100737.25;;;15.63;74.02
42105;BME280;70664;51.472;5.712;2023-11-19T12:50:58;100727.69;;;15.65;74.36
42105;BME280;70664;51.472;5.712;2023-11-19T12:53:26;100727.66;;;15.66;74.10
42105;BME280;70664;51.472;5.712;2023-11-19T12:55:53;100733.78;;;15.62;74.25
42105;BME280;70664;51.472;5.712;2023-11-19T12:58:32;100729.41;;;15.64;74.39
42105;BME280;70664;51.472;5.712;2023-11-19T13:01:08;100732.97;;;15.60;74.51
42105;BME280;70664;51.472;5.712;2023-11-19T13:03:37;100739.78;;;15.64;74.02
42105;BME280;70664;51.472;5.712;2023-11-19T13:06:12;100736.38;;;15.62;74.33
42105;BME280;70664;51.472;5.712;2023-11-19T13:08:42;100732.00;;;15.66;74.20
42105;BME280;70664;51.472;5.712;2023-11-19T13:11:11;100727.75;;;15.62;74.47
42105;BME280;70664;51.472;5.712;2023-11-19T13:14:01;100723.47;;;15.61;74.52